ELY777 LLBG-KSEA
Flight info
| Callsign | ELY777 |
|---|---|
| Flight time | N/A |
| Altitude | 34000 |
| Route | SUVAS N128 TEZAK L324 SAFTA DCT TOMBI UM855 AYT UQ23 OSVEL UL619 MAKOL L619 BALIK DCT KARIL DCT KEKED DCT KELEL DCT VAGON DCT SUBIX DCT BERIM/N0478F360 DCT TUSKA DCT PETIL DCT REKNA DCT BALIX/M084F360 DCT 61N020W 62N030W 62N040W 62N050W/M084F380 DCT PIDSO/N0483F380 DCT TUNNI DCT 60N080W 59N090W/N0493F400 56N100W 52N110W DCT HAYDN DCT YXC GLASR3 |
| Aircraft | B772/H-SDE2E3FGHIJ5LORVWXY/LB1D1 |
Departure
| Time | N/A |
|---|---|
| Airport | Ben Gurion International Airport (LLBG) |
Arrival
| Time | 2026-05-04 18:11 |
|---|---|
| Airport | Seattle–Tacoma International Airport (KSEA) |
| Time | Latitude | Longitude | Altitude | Speed | Heading |
|---|---|---|---|---|---|
| 2026-05-04 17:47 | 47.73205 | -119.51226 | 39881 ft | 471 kts | 284° |
| 2026-05-04 17:48 | 47.73574 | -119.55813 | 39860 ft | 473 kts | 284° |
| 2026-05-04 17:48 | 47.74227 | -119.63966 | 39865 ft | 475 kts | 284° |
| 2026-05-04 17:49 | 47.74995 | -119.73728 | 39868 ft | 476 kts | 284° |
| 2026-05-04 17:49 | 47.75740 | -119.83359 | 39683 ft | 468 kts | 284° |
| 2026-05-04 17:50 | 47.76108 | -119.88151 | 39414 ft | 466 kts | 284° |
| 2026-05-04 17:50 | 47.76478 | -119.92946 | 38962 ft | 467 kts | 284° |
| 2026-05-04 17:50 | 47.76845 | -119.97739 | 38235 ft | 468 kts | 284° |
| 2026-05-04 17:50 | 47.77211 | -120.02545 | 37504 ft | 469 kts | 284° |
| 2026-05-04 17:51 | 47.77577 | -120.07373 | 36770 ft | 469 kts | 284° |
| 2026-05-04 17:51 | 47.77939 | -120.12181 | 36037 ft | 470 kts | 283° |
| 2026-05-04 17:51 | 47.78299 | -120.17023 | 35247 ft | 472 kts | 283° |
| 2026-05-04 17:51 | 47.78659 | -120.21883 | 34391 ft | 475 kts | 282° |
| 2026-05-04 17:52 | 47.79021 | -120.26797 | 33436 ft | 480 kts | 282° |
| 2026-05-04 17:52 | 47.79385 | -120.31755 | 32359 ft | 484 kts | 281° |
| 2026-05-04 17:52 | 47.79750 | -120.36766 | 31244 ft | 489 kts | 281° |
| 2026-05-04 17:52 | 47.80113 | -120.41796 | 30373 ft | 489 kts | 280° |
| 2026-05-04 17:53 | 47.80470 | -120.46813 | 29558 ft | 485 kts | 280° |
| 2026-05-04 17:53 | 47.80820 | -120.51781 | 28695 ft | 480 kts | 280° |
| 2026-05-04 17:53 | 47.81168 | -120.56691 | 27912 ft | 474 kts | 280° |
| 2026-05-04 17:53 | 47.81507 | -120.61488 | 27131 ft | 469 kts | 280° |
| 2026-05-04 17:54 | 47.81844 | -120.66278 | 26381 ft | 464 kts | 280° |
| 2026-05-04 17:54 | 47.82177 | -120.71042 | 25640 ft | 460 kts | 280° |
| 2026-05-04 17:54 | 47.82505 | -120.75752 | 24912 ft | 456 kts | 280° |
| 2026-05-04 17:54 | 47.82828 | -120.80432 | 24179 ft | 453 kts | 280° |
| 2026-05-04 17:55 | 47.83146 | -120.85082 | 23429 ft | 450 kts | 279° |
| 2026-05-04 17:55 | 47.83460 | -120.89708 | 22585 ft | 447 kts | 279° |
| 2026-05-04 17:55 | 47.83769 | -120.94282 | 21824 ft | 443 kts | 279° |
| 2026-05-04 17:55 | 47.84073 | -120.98832 | 21096 ft | 439 kts | 279° |
| 2026-05-04 17:56 | 47.84373 | -121.03337 | 20359 ft | 436 kts | 279° |
| 2026-05-04 17:56 | 47.84571 | -121.06296 | 19902 ft | 433 kts | 278° |
| 2026-05-04 17:56 | 47.84867 | -121.10748 | 19210 ft | 429 kts | 278° |
| 2026-05-04 17:56 | 47.85157 | -121.15143 | 18559 ft | 425 kts | 278° |
| 2026-05-04 17:57 | 47.85321 | -121.17641 | 18153 ft | 423 kts | 278° |
| 2026-05-04 17:57 | 47.85373 | -121.18451 | 18024 ft | 422 kts | 278° |
| 2026-05-04 17:57 | 47.85656 | -121.22772 | 17262 ft | 418 kts | 278° |
| 2026-05-04 17:57 | 47.85930 | -121.27046 | 16633 ft | 412 kts | 278° |
| 2026-05-04 17:58 | 47.86203 | -121.31274 | 15926 ft | 409 kts | 278° |
| 2026-05-04 17:58 | 47.86465 | -121.35412 | 15250 ft | 388 kts | 278° |
| 2026-05-04 17:58 | 47.86708 | -121.39302 | 14654 ft | 373 kts | 278° |
| 2026-05-04 17:58 | 47.86951 | -121.43113 | 14056 ft | 375 kts | 278° |
| 2026-05-04 17:59 | 47.87197 | -121.46964 | 13432 ft | 376 kts | 278° |
| 2026-05-04 17:59 | 47.87444 | -121.50848 | 12806 ft | 377 kts | 277° |
| 2026-05-04 17:59 | 47.87905 | -121.58393 | 12419 ft | 353 kts | 277° |
| 2026-05-04 18:00 | 47.88131 | -121.61976 | 12284 ft | 342 kts | 277° |
| 2026-05-04 18:00 | 47.88187 | -121.65424 | 12133 ft | 328 kts | 264° |
| 2026-05-04 18:00 | 47.87531 | -121.68614 | 12056 ft | 318 kts | 247° |
| 2026-05-04 18:00 | 47.86503 | -121.71422 | 11960 ft | 307 kts | 241° |
| 2026-05-04 18:01 | 47.85388 | -121.74082 | 11808 ft | 299 kts | 240° |
| 2026-05-04 18:01 | 47.84275 | -121.76666 | 11569 ft | 294 kts | 239° |
| 2026-05-04 18:01 | 47.83180 | -121.79201 | 11309 ft | 291 kts | 240° |
| 2026-05-04 18:02 | 47.81005 | -121.84260 | 10670 ft | 289 kts | 240° |
| 2026-05-04 18:02 | 47.79930 | -121.86771 | 10359 ft | 287 kts | 240° |
| 2026-05-04 18:02 | 47.78862 | -121.89267 | 10060 ft | 285 kts | 240° |
| 2026-05-04 18:02 | 47.77801 | -121.91750 | 9760 ft | 283 kts | 240° |
| 2026-05-04 18:03 | 47.76748 | -121.94214 | 9382 ft | 283 kts | 239° |
| 2026-05-04 18:03 | 47.75694 | -121.96680 | 9029 ft | 282 kts | 239° |
| 2026-05-04 18:03 | 47.74672 | -121.99073 | 8624 ft | 266 kts | 239° |
| 2026-05-04 18:03 | 47.73694 | -122.01355 | 8247 ft | 261 kts | 239° |
| 2026-05-04 18:04 | 47.72715 | -122.03645 | 7858 ft | 264 kts | 239° |
| 2026-05-04 18:04 | 47.71730 | -122.05948 | 7475 ft | 267 kts | 239° |
| 2026-05-04 18:04 | 47.69723 | -122.10628 | 6724 ft | 272 kts | 239° |
| 2026-05-04 18:05 | 47.68704 | -122.13003 | 6354 ft | 270 kts | 239° |
| 2026-05-04 18:05 | 47.67720 | -122.15287 | 5925 ft | 257 kts | 239° |
| 2026-05-04 18:05 | 47.66783 | -122.17470 | 5509 ft | 244 kts | 239° |
| 2026-05-04 18:05 | 47.65887 | -122.19546 | 5093 ft | 234 kts | 239° |
| 2026-05-04 18:06 | 47.64223 | -122.23417 | 4271 ft | 214 kts | 239° |
| 2026-05-04 18:06 | 47.63446 | -122.25213 | 3950 ft | 201 kts | 239° |
| 2026-05-04 18:06 | 47.62706 | -122.26923 | 3534 ft | 194 kts | 239° |
| 2026-05-04 18:07 | 47.61972 | -122.28624 | 3167 ft | 198 kts | 239° |
| 2026-05-04 18:07 | 47.61215 | -122.30348 | 2883 ft | 194 kts | 231° |
| 2026-05-04 18:07 | 47.60179 | -122.31379 | 2886 ft | 180 kts | 201° |
| 2026-05-04 18:07 | 47.58929 | -122.31706 | 2873 ft | 184 kts | 181° |
| 2026-05-04 18:08 | 47.57692 | -122.31656 | 2901 ft | 172 kts | 182° |
| 2026-05-04 18:08 | 47.56527 | -122.31696 | 2867 ft | 164 kts | 185° |
| 2026-05-04 18:08 | 47.55304 | -122.31911 | 2230 ft | 186 kts | 191° |
| 2026-05-04 18:08 | 47.54126 | -122.32203 | 2249 ft | 171 kts | 189° |
| 2026-05-04 18:09 | 47.51863 | -122.31940 | 1680 ft | 152 kts | 175° |
| 2026-05-04 18:09 | 47.49672 | -122.31748 | 1066 ft | 154 kts | 181° |
| 2026-05-04 18:10 | 47.48641 | -122.31769 | 875 ft | 144 kts | 181° |
| 2026-05-04 18:10 | 47.47631 | -122.31804 | 699 ft | 146 kts | 180° |
| 2026-05-04 18:10 | 47.46622 | -122.31787 | 484 ft | 143 kts | 178° |
| 2026-05-04 18:10 | 47.45695 | -122.31788 | 407 ft | 123 kts | 184° |
| 2026-05-04 18:11 | 47.44991 | -122.31799 | 393 ft | 79 kts | 180° |
| 2026-05-04 18:11 | 47.44581 | -122.31804 | 386 ft | 47 kts | 181° |
| 2026-05-04 18:11 | 47.44288 | -122.31732 | 375 ft | 38 kts | 154° |
| 2026-05-04 18:11 | 47.44081 | -122.31562 | 374 ft | 25 kts | 152° |
| 2026-05-04 18:12 | 47.43933 | -122.31440 | 372 ft | 19 kts | 150° |
| 2026-05-04 18:12 | 47.43824 | -122.31322 | 375 ft | 19 kts | 120° |
| 2026-05-04 18:12 | 47.43808 | -122.31126 | 376 ft | 19 kts | 90° |
| 2026-05-04 18:12 | 47.43806 | -122.30929 | 378 ft | 19 kts | 92° |
| 2026-05-04 18:13 | 47.43805 | -122.30729 | 380 ft | 19 kts | 87° |
| 2026-05-04 18:13 | 47.43871 | -122.30641 | 384 ft | 14 kts | 8° |
| 2026-05-04 18:13 | 47.43991 | -122.30457 | 389 ft | 16 kts | 88° |
| 2026-05-04 18:14 | 47.44002 | -122.30319 | 391 ft | 13 kts | 73° |
| 2026-05-04 18:14 | 47.44031 | -122.30243 | 393 ft | 7 kts | 54° |
| 2026-05-04 18:14 | 47.44030 | -122.30212 | 393 ft | 6 kts | 117° |
| 2026-05-04 18:15 | 47.43977 | -122.30192 | 393 ft | 0 kts | 174° |
| 2026-05-04 18:17 | 47.43973 | -122.30189 | 393 ft | 0 kts | 175° |